Welcome to Des Moines Iowa Weather. I am an independent private personal weather station on the Northwest Side of Des Moines, Iowa. Just East of Windsor Heights and just West of Glendale . This site is also mobile friendly.

There are no active watches, warnings or advisories


Visit our other weather sites:

Historical Data

Weather Station Setup



Weather Underground History page Text

Daily Summary for March 08, 2018 Units:  English    Metric   Both
« Previous Day
Next Day »
Daily Weekly Monthly Yearly Custom
  High: Low: Average:
Temperature: 33.2 °F 17.5 °F 25.2 °F
Dew Point: 21.5 °F 13.8 °F 18.2 °F
Humidity: 87 % 60 % 75 %
Wind Speed: 11.0 mph 0.0 mph 1.7 mph
Wind Gust: 16.0 mph - -
Wind:- - NW
Pressure: 30.27 in 30.08 in -
Precipitation: 0.00 in    
Historical Graphs
 
 
Tabular Data for March 08, 2018
Time Temperature Dew Point Pressure Wind Wind Speed Wind Gust Humidity Rainfall Rate (Hourly)
00:00 22.2 °F 18.7 °F 30.22 in Calm   5.0 mph 86 % 0.00 in
00:05 21.9 °F 19.0 °F 30.24 in NNW 8.0 mph 8.0 mph 87 % 0.00 in
00:10 21.9 °F 18.6 °F 30.22 in Calm   4.0 mph 87 % 0.00 in
00:15 21.9 °F 18.6 °F 30.22 in Calm   4.0 mph 87 % 0.00 in
00:20 21.6 °F 18.0 °F 30.24 in Calm   5.0 mph 87 % 0.00 in
00:25 21.7 °F 18.5 °F 30.21 in Calm   8.0 mph 87 % 0.00 in
00:30 21.7 °F 18.5 °F 30.21 in Calm   8.0 mph 87 % 0.00 in
00:35 21.5 °F 18.0 °F 30.24 in Calm   5.0 mph 87 % 0.00 in
00:40 21.5 °F 18.2 °F 30.21 in North 1.0 mph 8.0 mph 87 % 0.00 in
00:45 21.5 °F 18.2 °F 30.21 in North 1.0 mph 8.0 mph 87 % 0.00 in
00:50 21.5 °F 18.0 °F 30.24 in NW 1.0 mph 4.0 mph 87 % 0.00 in
00:55 21.5 °F 18.2 °F 30.21 in Calm   5.0 mph 87 % 0.00 in
01:00 21.5 °F 18.2 °F 30.21 in Calm   5.0 mph 87 % 0.00 in
01:05 21.2 °F 18.0 °F 30.24 in Calm     87 % 0.00 in
01:10 21.3 °F 18.0 °F 30.21 in Calm   3.0 mph 87 % 0.00 in
01:15 21.3 °F 18.0 °F 30.21 in Calm   3.0 mph 87 % 0.00 in
01:20 20.9 °F 18.0 °F 30.24 in Calm     87 % 0.00 in
01:25 20.9 °F 17.6 °F 30.21 in Calm     87 % 0.00 in
01:30 20.9 °F 17.6 °F 30.21 in Calm     87 % 0.00 in
01:35 20.6 °F 17.0 °F 30.24 in Calm     87 % 0.00 in
01:40 20.6 °F 17.4 °F 30.21 in Calm   2.0 mph 87 % 0.00 in
01:45 20.6 °F 17.4 °F 30.21 in Calm   2.0 mph 87 % 0.00 in
01:50 20.6 °F 17.4 °F 30.21 in Calm   2.0 mph 87 % 0.00 in
01:51 20.3 °F 17.0 °F 30.24 in Calm   5.0 mph 87 % 0.00 in
01:55 20.3 °F 17.1 °F 30.21 in Calm   5.0 mph 87 % 0.00 in
02:00 20.3 °F 17.1 °F 30.21 in Calm   5.0 mph 87 % 0.00 in
02:05 20.3 °F 17.1 °F 30.21 in Calm   5.0 mph 87 % 0.00 in
02:06 20.2 °F 17.0 °F 30.24 in NW 1.0 mph 4.0 mph 87 % 0.00 in
02:10 20.2 °F 17.0 °F 30.21 in Calm   5.0 mph 87 % 0.00 in
02:15 20.2 °F 17.0 °F 30.21 in Calm   5.0 mph 87 % 0.00 in
02:20 20.2 °F 17.0 °F 30.21 in Calm   5.0 mph 87 % 0.00 in
02:21 20.3 °F 17.0 °F 30.24 in NW 2.0 mph 8.0 mph 87 % 0.00 in
02:25 20.3 °F 17.1 °F 30.21 in NW 2.0 mph 13.0 mph 87 % 0.00 in
02:30 20.3 °F 17.1 °F 30.21 in NW 2.0 mph 13.0 mph 87 % 0.00 in
02:35 20.3 °F 17.1 °F 30.21 in NW 2.0 mph 13.0 mph 87 % 0.00 in
02:36 20.7 °F 17.0 °F 30.23 in WNW 1.0 mph 11.0 mph 85 % 0.00 in
02:40 20.7 °F 17.2 °F 30.20 in NW 4.0 mph 13.0 mph 86 % 0.00 in
02:45 20.7 °F 17.2 °F 30.20 in NW 4.0 mph 13.0 mph 86 % 0.00 in
02:50 20.7 °F 17.2 °F 30.20 in NW 4.0 mph 13.0 mph 86 % 0.00 in
02:51 20.8 °F 17.0 °F 30.23 in NW 4.0 mph 8.0 mph 84 % 0.00 in
02:55 20.8 °F 16.7 °F 30.20 in NW 3.0 mph 10.0 mph 84 % 0.00 in
03:00 20.8 °F 16.7 °F 30.20 in NW 3.0 mph 10.0 mph 84 % 0.00 in
03:05 20.8 °F 16.7 °F 30.20 in NW 3.0 mph 10.0 mph 84 % 0.00 in
03:06 20.9 °F 17.0 °F 30.24 in WNW 4.0 mph 6.0 mph 83 % 0.00 in
03:10 20.9 °F 16.6 °F 30.20 in NW 3.0 mph 9.0 mph 83 % 0.00 in
03:15 20.9 °F 16.6 °F 30.20 in NW 3.0 mph 9.0 mph 83 % 0.00 in
03:20 20.9 °F 16.6 °F 30.20 in NW 3.0 mph 9.0 mph 83 % 0.00 in
03:21 20.7 °F 16.0 °F 30.23 in West 3.0 mph 6.0 mph 83 % 0.00 in
03:25 20.8 °F 16.5 °F 30.20 in NW 1.0 mph 7.0 mph 83 % 0.00 in
03:30 20.8 °F 16.5 °F 30.20 in NW 1.0 mph 7.0 mph 83 % 0.00 in
03:35 20.8 °F 16.5 °F 30.20 in NW 1.0 mph 7.0 mph 83 % 0.00 in
03:36 20.4 °F 16.0 °F 30.24 in NW 1.0 mph 4.0 mph 83 % 0.00 in
03:40 20.5 °F 16.2 °F 30.21 in NW 2.0 mph 8.0 mph 83 % 0.00 in
03:45 20.5 °F 16.2 °F 30.21 in NW 2.0 mph 8.0 mph 83 % 0.00 in
03:50 20.5 °F 16.2 °F 30.21 in NW 2.0 mph 8.0 mph 83 % 0.00 in
03:51 20.2 °F 16.0 °F 30.24 in Calm   5.0 mph 83 % 0.00 in
03:55 20.2 °F 15.9 °F 30.21 in NW 2.0 mph 6.0 mph 83 % 0.00 in
04:00 20.2 °F 15.9 °F 30.21 in NW 2.0 mph 6.0 mph 83 % 0.00 in
04:05 20.2 °F 15.9 °F 30.21 in NW 2.0 mph 6.0 mph 83 % 0.00 in
04:06 19.8 °F 15.0 °F 30.24 in NW 3.0 mph 6.0 mph 83 % 0.00 in
04:10 19.8 °F 15.5 °F 30.20 in NNW 1.0 mph 8.0 mph 83 % 0.00 in
04:15 19.8 °F 15.5 °F 30.20 in NNW 1.0 mph 8.0 mph 83 % 0.00 in
04:20 19.8 °F 15.5 °F 30.20 in NNW 1.0 mph 8.0 mph 83 % 0.00 in
04:21 19.5 °F 15.0 °F 30.25 in NW 1.0 mph 4.0 mph 83 % 0.00 in
04:25 19.5 °F 15.2 °F 30.21 in NW 1.0 mph 4.0 mph 83 % 0.00 in
04:30 19.5 °F 15.2 °F 30.21 in NW 1.0 mph 4.0 mph 83 % 0.00 in
04:35 19.5 °F 15.2 °F 30.21 in NW 1.0 mph 4.0 mph 83 % 0.00 in
04:36 19.2 °F 15.0 °F 30.25 in Calm   3.0 mph 83 % 0.00 in
04:40 19.3 °F 15.0 °F 30.22 in NNW 2.0 mph 5.0 mph 83 % 0.00 in
04:45 19.3 °F 15.0 °F 30.22 in NNW 2.0 mph 5.0 mph 83 % 0.00 in
04:50 19.3 °F 15.0 °F 30.22 in NNW 2.0 mph 5.0 mph 83 % 0.00 in
04:51 19.0 °F 15.0 °F 30.25 in NW 1.0 mph 8.0 mph 84 % 0.00 in
04:55 19.0 °F 15.0 °F 30.22 in NW 2.0 mph 9.0 mph 84 % 0.00 in
05:00 19.0 °F 15.0 °F 30.22 in NW 2.0 mph 9.0 mph 84 % 0.00 in
05:05 19.0 °F 15.0 °F 30.22 in NW 2.0 mph 9.0 mph 84 % 0.00 in
05:06 18.8 °F 15.0 °F 30.26 in West 2.0 mph 6.0 mph 84 % 0.00 in
05:10 18.9 °F 14.9 °F 30.22 in NNW 1.0 mph 6.0 mph 84 % 0.00 in
05:15 18.9 °F 14.9 °F 30.22 in NNW 1.0 mph 6.0 mph 84 % 0.00 in
05:20 18.9 °F 14.9 °F 30.22 in NNW 1.0 mph 6.0 mph 84 % 0.00 in
05:21 18.7 °F 15.0 °F 30.25 in NW 1.0 mph 5.0 mph 84 % 0.00 in
05:25 18.7 °F 14.7 °F 30.22 in NW 2.0 mph 7.0 mph 84 % 0.00 in
05:30 18.7 °F 14.7 °F 30.22 in NW 2.0 mph 7.0 mph 84 % 0.00 in
05:35 18.7 °F 14.7 °F 30.22 in NW 2.0 mph 7.0 mph 84 % 0.00 in
05:36 18.5 °F 15.0 °F 30.25 in Calm   4.0 mph 84 % 0.00 in
05:40 18.5 °F 14.5 °F 30.22 in NW 1.0 mph 8.0 mph 84 % 0.00 in
05:45 18.5 °F 14.5 °F 30.22 in NW 1.0 mph 8.0 mph 84 % 0.00 in
05:50 18.5 °F 14.5 °F 30.22 in NW 1.0 mph 8.0 mph 84 % 0.00 in
05:51 18.3 °F 14.0 °F 30.25 in NW 2.0 mph 8.0 mph 84 % 0.00 in
05:55 18.3 °F 14.3 °F 30.22 in NW 1.0 mph 9.0 mph 84 % 0.00 in
06:00 18.3 °F 14.3 °F 30.22 in NW 1.0 mph 9.0 mph 84 % 0.00 in
06:05 18.3 °F 14.3 °F 30.22 in NW 1.0 mph 9.0 mph 84 % 0.00 in
06:06 18.1 °F 14.0 °F 30.25 in Calm   4.0 mph 84 % 0.00 in
06:10 18.2 °F 14.2 °F 30.22 in NW 1.0 mph 5.0 mph 84 % 0.00 in
06:15 18.2 °F 14.2 °F 30.22 in NW 1.0 mph 5.0 mph 84 % 0.00 in
06:20 18.2 °F 14.2 °F 30.22 in NW 1.0 mph 5.0 mph 84 % 0.00 in
06:21 17.9 °F 14.0 °F 30.25 in NW 2.0 mph 3.0 mph 84 % 0.00 in
06:25 17.9 °F 13.9 °F 30.22 in Calm   3.0 mph 84 % 0.00 in
06:30 17.9 °F 13.9 °F 30.22 in Calm   3.0 mph 84 % 0.00 in
06:35 17.9 °F 13.9 °F 30.22 in Calm   3.0 mph 84 % 0.00 in
06:36 17.7 °F 14.0 °F 30.26 in Calm   5.0 mph 85 % 0.00 in
06:40 17.7 °F 14.0 °F 30.22 in NW 1.0 mph 5.0 mph 85 % 0.00 in
06:45 17.7 °F 14.0 °F 30.22 in NW 1.0 mph 5.0 mph 85 % 0.00 in
06:50 17.7 °F 14.0 °F 30.22 in NW 1.0 mph 5.0 mph 85 % 0.00 in
06:51 17.6 °F 14.0 °F 30.26 in Calm   2.0 mph 85 % 0.00 in
06:55 17.6 °F 13.9 °F 30.23 in NW 1.0 mph 4.0 mph 85 % 0.00 in
07:00 17.6 °F 13.9 °F 30.23 in NW 1.0 mph 4.0 mph 85 % 0.00 in
07:05 17.6 °F 13.9 °F 30.23 in NW 1.0 mph 4.0 mph 85 % 0.00 in
07:06 17.5 °F 14.0 °F 30.26 in Calm   6.0 mph 85 % 0.00 in
07:10 17.5 °F 13.8 °F 30.23 in NW 1.0 mph 9.0 mph 85 % 0.00 in
07:15 17.5 °F 13.8 °F 30.23 in NW 1.0 mph 9.0 mph 85 % 0.00 in
07:20 17.5 °F 13.8 °F 30.23 in NW 1.0 mph 9.0 mph 85 % 0.00 in
07:21 17.7 °F 14.0 °F 30.26 in NW 2.0 mph 5.0 mph 86 % 0.00 in
07:25 17.7 °F 14.2 °F 30.23 in NW 1.0 mph 6.0 mph 86 % 0.00 in
07:30 17.7 °F 14.2 °F 30.23 in NW 1.0 mph 6.0 mph 86 % 0.00 in
07:35 17.7 °F 14.2 °F 30.23 in NW 1.0 mph 6.0 mph 86 % 0.00 in
07:36 18.3 °F 15.0 °F 30.27 in North 7.0 mph 11.0 mph 86 % 0.00 in
07:40 18.2 °F 14.7 °F 30.23 in NNW 3.0 mph 12.0 mph 86 % 0.00 in
07:45 18.2 °F 14.7 °F 30.23 in NNW 3.0 mph 12.0 mph 86 % 0.00 in
07:50 18.2 °F 14.7 °F 30.23 in NNW 3.0 mph 12.0 mph 86 % 0.00 in
07:51 18.9 °F 15.0 °F 30.27 in WNW 2.0 mph 8.0 mph 85 % 0.00 in
07:55 18.8 °F 15.0 °F 30.24 in NNW 3.0 mph 10.0 mph 85 % 0.00 in
08:00 18.8 °F 15.0 °F 30.24 in NNW 3.0 mph 10.0 mph 85 % 0.00 in
08:05 18.8 °F 15.0 °F 30.24 in NNW 3.0 mph 10.0 mph 85 % 0.00 in
08:06 19.6 °F 16.0 °F 30.27 in West 1.0 mph 8.0 mph 84 % 0.00 in
08:10 19.5 °F 15.8 °F 30.24 in NW 2.0 mph 9.0 mph 85 % 0.00 in
08:15 19.5 °F 15.8 °F 30.24 in NW 2.0 mph 9.0 mph 85 % 0.00 in
08:20 19.5 °F 15.8 °F 30.24 in NW 2.0 mph 9.0 mph 85 % 0.00 in
08:21 20.2 °F 16.0 °F 30.27 in NNW 11.0 mph 11.0 mph 84 % 0.00 in
08:25 20.1 °F 16.0 °F 30.24 in NW 3.0 mph 10.0 mph 84 % 0.00 in
08:30 20.1 °F 16.0 °F 30.24 in NW 3.0 mph 10.0 mph 84 % 0.00 in
08:35 20.1 °F 16.0 °F 30.24 in NW 3.0 mph 10.0 mph 84 % 0.00 in
08:36 20.7 °F 16.0 °F 30.27 in NW 1.0 mph 11.0 mph 83 % 0.00 in
08:40 20.6 °F 16.3 °F 30.24 in NW 5.0 mph 12.0 mph 83 % 0.00 in
08:45 20.6 °F 16.3 °F 30.24 in NW 5.0 mph 12.0 mph 83 % 0.00 in
08:50 20.6 °F 16.3 °F 30.24 in NW 5.0 mph 12.0 mph 83 % 0.00 in
08:51 21.5 °F 17.0 °F 30.27 in WNW 3.0 mph 9.0 mph 82 % 0.00 in
08:55 21.3 °F 16.7 °F 30.24 in NW 4.0 mph 14.0 mph 82 % 0.00 in
09:00 21.3 °F 16.7 °F 30.24 in NW 4.0 mph 14.0 mph 82 % 0.00 in
09:05 21.3 °F 16.7 °F 30.24 in NW 4.0 mph 14.0 mph 82 % 0.00 in
09:06 22.0 °F 17.0 °F 30.27 in NNW 2.0 mph 10.0 mph 81 % 0.00 in
09:10 22.0 °F 17.1 °F 30.24 in NNW 4.0 mph 11.0 mph 81 % 0.00 in
09:15 22.0 °F 17.1 °F 30.24 in NNW 4.0 mph 11.0 mph 81 % 0.00 in
09:20 22.0 °F 17.1 °F 30.24 in NNW 4.0 mph 11.0 mph 81 % 0.00 in
09:21 22.6 °F 17.0 °F 30.27 in WNW 2.0 mph 10.0 mph 80 % 0.00 in
09:25 22.4 °F 17.2 °F 30.24 in NW 5.0 mph 11.0 mph 80 % 0.00 in
09:30 22.4 °F 17.2 °F 30.24 in NW 5.0 mph 11.0 mph 80 % 0.00 in
09:35 22.4 °F 17.2 °F 30.24 in NW 5.0 mph 11.0 mph 80 % 0.00 in
09:36 23.5 °F 18.0 °F 30.27 in NW 2.0 mph 9.0 mph 78 % 0.00 in
09:40 23.3 °F 17.8 °F 30.24 in NW 4.0 mph 14.0 mph 79 % 0.00 in
09:45 23.3 °F 17.8 °F 30.24 in NW 4.0 mph 14.0 mph 79 % 0.00 in
09:50 23.3 °F 17.8 °F 30.24 in NW 4.0 mph 14.0 mph 79 % 0.00 in
09:51 24.2 °F 18.0 °F 30.27 in WNW 2.0 mph 10.0 mph 77 % 0.00 in
09:55 24.1 °F 18.2 °F 30.24 in NW 4.0 mph 11.0 mph 78 % 0.00 in
10:00 24.1 °F 18.2 °F 30.24 in NW 4.0 mph 11.0 mph 78 % 0.00 in
10:05 24.1 °F 18.2 °F 30.24 in NW 4.0 mph 11.0 mph 78 % 0.00 in
10:07 25.1 °F 19.0 °F 30.27 in West 4.0 mph 9.0 mph 76 % 0.00 in
10:10 24.8 °F 18.3 °F 30.24 in NNW 4.0 mph 12.0 mph 76 % 0.00 in
10:15 24.8 °F 18.3 °F 30.24 in NNW 4.0 mph 12.0 mph 76 % 0.00 in
10:20 24.8 °F 18.3 °F 30.24 in NNW 4.0 mph 12.0 mph 76 % 0.00 in
10:22 25.8 °F 18.0 °F 30.27 in NW 4.0 mph 9.0 mph 73 % 0.00 in
10:25 25.6 °F 18.5 °F 30.24 in NW 5.0 mph 11.0 mph 74 % 0.00 in
10:30 25.6 °F 18.5 °F 30.24 in NW 5.0 mph 11.0 mph 74 % 0.00 in
10:35 25.6 °F 18.5 °F 30.24 in NW 5.0 mph 11.0 mph 74 % 0.00 in
10:37 26.8 °F 19.0 °F 30.26 in WNW 4.0 mph 9.0 mph 72 % 0.00 in
10:40 26.7 °F 18.9 °F 30.24 in NNW 4.0 mph 11.0 mph 72 % 0.00 in
10:45 26.7 °F 18.9 °F 30.24 in NNW 4.0 mph 11.0 mph 72 % 0.00 in
10:50 26.7 °F 18.9 °F 30.24 in NNW 4.0 mph 11.0 mph 72 % 0.00 in
10:52 27.8 °F 20.0 °F 30.27 in WSW 7.0 mph 9.0 mph 71 % 0.00 in
10:55 27.8 °F 19.6 °F 30.24 in WNW 5.0 mph 5.0 mph 71 % 0.00 in
11:00 28.0 °F 19.5 °F 30.24 in NW 4.0 mph 6.0 mph 70 % 0.00 in
11:05 27.8 °F 19.3 °F 30.24 in NW 4.0 mph 4.0 mph 70 % 0.00 in
11:07 28.1 °F 20.0 °F 30.26 in NW 2.0 mph 9.0 mph 71 % 0.00 in
11:10 27.9 °F 19.7 °F 30.24 in NW 4.0 mph 7.0 mph 71 % 0.00 in
11:15 27.8 °F 19.3 °F 30.24 in NW 4.0 mph 12.0 mph 70 % 0.00 in
11:20 27.8 °F 19.3 °F 30.24 in NW 4.0 mph 12.0 mph 70 % 0.00 in
11:22 28.3 °F 19.0 °F 30.26 in NNW 2.0 mph 11.0 mph 69 % 0.00 in
11:25 27.8 °F 19.3 °F 30.24 in NW 4.0 mph 12.0 mph 70 % 0.00 in
11:30 28.7 °F 20.5 °F 30.24 in WNW 3.0 mph 12.0 mph 71 % 0.00 in
11:35 28.7 °F 20.5 °F 30.24 in WNW 3.0 mph 12.0 mph 71 % 0.00 in
11:37 28.0 °F 19.0 °F 30.26 in NW 4.0 mph 10.0 mph 69 % 0.00 in
11:40 28.2 °F 19.4 °F 30.23 in NNW 4.0 mph 12.0 mph 69 % 0.00 in
11:45 28.2 °F 19.4 °F 30.23 in NNW 4.0 mph 12.0 mph 69 % 0.00 in
11:50 28.2 °F 19.4 °F 30.23 in NNW 4.0 mph 12.0 mph 69 % 0.00 in
11:52 29.7 °F 20.0 °F 30.25 in WNW 3.0 mph 6.0 mph 68 % 0.00 in
11:55 29.3 °F 20.4 °F 30.22 in West 4.0 mph 10.0 mph 69 % 0.00 in
12:00 29.3 °F 20.4 °F 30.22 in West 4.0 mph 10.0 mph 69 % 0.00 in
12:05 29.3 °F 20.4 °F 30.22 in West 4.0 mph 10.0 mph 69 % 0.00 in
12:07 29.4 °F 20.0 °F 30.25 in NW 2.0 mph 11.0 mph 67 % 0.00 in
12:10 29.3 °F 20.4 °F 30.21 in NNW 3.0 mph 11.0 mph 69 % 0.00 in
12:15 29.3 °F 20.4 °F 30.21 in NNW 3.0 mph 11.0 mph 69 % 0.00 in
12:20 29.3 °F 20.4 °F 30.21 in NNW 3.0 mph 11.0 mph 69 % 0.00 in
12:22 29.9 °F 20.0 °F 30.24 in NW 4.0 mph 6.0 mph 68 % 0.00 in
12:25 29.3 °F 20.4 °F 30.21 in NNW 3.0 mph 11.0 mph 69 % 0.00 in
12:30 29.6 °F 19.3 °F 30.21 in NW 4.0 mph 10.0 mph 65 % 0.00 in
12:35 29.6 °F 19.3 °F 30.21 in NW 4.0 mph 10.0 mph 65 % 0.00 in
12:37 30.4 °F 21.0 °F 30.23 in NNW 4.0 mph 8.0 mph 69 % 0.00 in
12:40 29.6 °F 19.3 °F 30.21 in NW 4.0 mph 10.0 mph 65 % 0.00 in
12:45 29.6 °F 20.0 °F 30.20 in NW 4.0 mph 12.0 mph 67 % 0.00 in
12:50 29.6 °F 20.0 °F 30.20 in NW 4.0 mph 12.0 mph 67 % 0.00 in
12:52 30.8 °F 21.0 °F 30.23 in West 3.0 mph 5.0 mph 66 % 0.00 in
12:55 29.6 °F 20.0 °F 30.20 in NW 4.0 mph 12.0 mph 67 % 0.00 in
13:00 29.9 °F 19.6 °F 30.19 in NW 4.0 mph 13.0 mph 65 % 0.00 in
13:05 29.9 °F 19.6 °F 30.19 in NW 4.0 mph 13.0 mph 65 % 0.00 in
13:07 30.4 °F 21.0 °F 30.22 in NNW 5.0 mph 9.0 mph 68 % 0.00 in
13:10 29.9 °F 19.6 °F 30.19 in NW 4.0 mph 13.0 mph 65 % 0.00 in
13:15 30.4 °F 20.8 °F 30.19 in West 4.0 mph 16.0 mph 67 % 0.00 in
13:20 30.4 °F 20.8 °F 30.19 in West 4.0 mph 16.0 mph 67 % 0.00 in
13:22 30.8 °F 20.0 °F 30.21 in Calm   5.0 mph 65 % 0.00 in
13:25 30.4 °F 20.4 °F 30.18 in NNW 3.0 mph 9.0 mph 66 % 0.00 in
13:30 30.4 °F 20.4 °F 30.18 in NNW 3.0 mph 9.0 mph 66 % 0.00 in
13:35 30.4 °F 20.4 °F 30.18 in NNW 3.0 mph 9.0 mph 66 % 0.00 in
13:37 32.1 °F 21.0 °F 30.20 in WSW 2.0 mph 6.0 mph 65 % 0.00 in
13:40 31.3 °F 20.5 °F 30.17 in NW 3.0 mph 8.0 mph 64 % 0.00 in
13:45 31.3 °F 20.5 °F 30.17 in NW 3.0 mph 8.0 mph 64 % 0.00 in
13:50 31.3 °F 20.5 °F 30.17 in NW 3.0 mph 8.0 mph 64 % 0.00 in
13:52 32.0 °F 21.0 °F 30.19 in WNW 3.0 mph 5.0 mph 64 % 0.00 in
13:55 31.5 °F 20.8 °F 30.16 in NNW 3.0 mph 9.0 mph 64 % 0.00 in
14:00 31.5 °F 20.8 °F 30.16 in NNW 3.0 mph 9.0 mph 64 % 0.00 in
14:05 31.5 °F 20.8 °F 30.16 in NNW 3.0 mph 9.0 mph 64 % 0.00 in
14:07 31.9 °F 20.0 °F 30.19 in North 4.0 mph 6.0 mph 63 % 0.00 in
14:10 31.5 °F 20.8 °F 30.16 in NNW 3.0 mph 9.0 mph 64 % 0.00 in
14:15 32.0 °F 20.5 °F 30.16 in WNW 2.0 mph 6.0 mph 62 % 0.00 in
14:20 32.0 °F 20.5 °F 30.16 in WNW 2.0 mph 6.0 mph 62 % 0.00 in
14:22 31.5 °F 19.0 °F 30.18 in West 1.0 mph 8.0 mph 60 % 0.00 in
14:25 32.0 °F 20.5 °F 30.16 in WNW 2.0 mph 6.0 mph 62 % 0.00 in
14:30 31.5 °F 19.6 °F 30.15 in North 3.0 mph 9.0 mph 61 % 0.00 in
14:35 31.5 °F 19.6 °F 30.15 in North 3.0 mph 9.0 mph 61 % 0.00 in
14:37 31.6 °F 20.0 °F 30.18 in NNW 4.0 mph 9.0 mph 62 % 0.00 in
14:40 31.5 °F 19.6 °F 30.15 in North 3.0 mph 9.0 mph 61 % 0.00 in
14:45 31.4 °F 19.1 °F 30.15 in WNW 3.0 mph 10.0 mph 60 % 0.00 in
14:50 31.4 °F 19.1 °F 30.15 in WNW 3.0 mph 10.0 mph 60 % 0.00 in
14:52 32.1 °F 21.0 °F 30.18 in WNW 1.0 mph 6.0 mph 63 % 0.00 in
14:55 31.8 °F 20.3 °F 30.15 in NNW 3.0 mph 9.0 mph 62 % 0.00 in
15:00 31.8 °F 20.3 °F 30.15 in NNW 3.0 mph 9.0 mph 62 % 0.00 in
15:05 31.8 °F 20.3 °F 30.15 in NNW 3.0 mph 9.0 mph 62 % 0.00 in
15:07 31.7 °F 20.0 °F 30.18 in NW 1.0 mph 4.0 mph 63 % 0.00 in
15:10 31.9 °F 20.4 °F 30.15 in NW 2.0 mph 8.0 mph 62 % 0.00 in
15:15 31.9 °F 20.4 °F 30.15 in NW 2.0 mph 8.0 mph 62 % 0.00 in
15:20 31.9 °F 20.4 °F 30.15 in NW 2.0 mph 8.0 mph 62 % 0.00 in
15:22 31.9 °F 20.0 °F 30.17 in Calm   5.0 mph 63 % 0.00 in
15:25 31.9 °F 21.1 °F 30.14 in NW 2.0 mph 8.0 mph 64 % 0.00 in
15:30 31.9 °F 21.1 °F 30.14 in NW 2.0 mph 8.0 mph 64 % 0.00 in
15:35 31.9 °F 21.1 °F 30.14 in NW 2.0 mph 8.0 mph 64 % 0.00 in
15:37 31.9 °F 21.0 °F 30.17 in NW 3.0 mph 5.0 mph 65 % 0.00 in
15:40 31.4 °F 20.3 °F 30.14 in NNW 1.0 mph 5.0 mph 63 % 0.00 in
15:45 31.4 °F 20.3 °F 30.14 in NNW 1.0 mph 5.0 mph 63 % 0.00 in
15:50 31.4 °F 20.3 °F 30.14 in NNW 1.0 mph 5.0 mph 63 % 0.00 in
15:52 31.6 °F 21.0 °F 30.16 in NW 4.0 mph 7.0 mph 64 % 0.00 in
15:55 31.4 °F 20.3 °F 30.14 in NNW 1.0 mph 5.0 mph 63 % 0.00 in
16:00 31.5 °F 20.4 °F 30.13 in NNE 2.0 mph 6.0 mph 63 % 0.00 in
16:05 31.5 °F 20.4 °F 30.13 in NNE 2.0 mph 6.0 mph 63 % 0.00 in
16:07 31.9 °F 20.0 °F 30.16 in ENE 3.0 mph 8.0 mph 63 % 0.00 in
16:10 31.5 °F 20.4 °F 30.13 in NNE 2.0 mph 6.0 mph 63 % 0.00 in
16:15 31.8 °F 20.7 °F 30.13 in NNW 2.0 mph 8.0 mph 63 % 0.00 in
16:20 31.8 °F 20.7 °F 30.13 in NNW 2.0 mph 8.0 mph 63 % 0.00 in
16:22 32.9 °F 21.0 °F 30.15 in Calm   5.0 mph 62 % 0.00 in
16:25 31.8 °F 20.7 °F 30.13 in NNW 2.0 mph 8.0 mph 63 % 0.00 in
16:30 32.7 °F 21.5 °F 30.12 in NW 1.0 mph 7.0 mph 63 % 0.00 in
16:35 32.7 °F 21.5 °F 30.12 in NW 1.0 mph 7.0 mph 63 % 0.00 in
16:37 33.2 °F 21.0 °F 30.15 in Calm   4.0 mph 61 % 0.00 in
16:40 33.2 °F 21.2 °F 30.12 in NNW 1.0 mph 5.0 mph 61 % 0.00 in
16:45 33.2 °F 21.2 °F 30.12 in NNW 1.0 mph 5.0 mph 61 % 0.00 in
16:50 33.2 °F 21.2 °F 30.12 in NNW 1.0 mph 5.0 mph 61 % 0.00 in
16:52 32.7 °F 20.0 °F 30.15 in NW 2.0 mph 5.0 mph 61 % 0.00 in
16:55 32.9 °F 21.3 °F 30.11 in Calm   5.0 mph 62 % 0.00 in
17:00 32.9 °F 21.3 °F 30.11 in Calm   5.0 mph 62 % 0.00 in
17:05 32.9 °F 21.3 °F 30.11 in Calm   5.0 mph 62 % 0.00 in
17:07 32.3 °F 21.0 °F 30.15 in NW 2.0 mph 2.0 mph 63 % 0.00 in
17:10 32.4 °F 21.2 °F 30.11 in NNW 1.0 mph 4.0 mph 63 % 0.00 in
17:15 32.4 °F 21.2 °F 30.11 in NNW 1.0 mph 4.0 mph 63 % 0.00 in
17:20 32.4 °F 21.2 °F 30.11 in NNW 1.0 mph 4.0 mph 63 % 0.00 in
17:22 32.0 °F 21.0 °F 30.15 in NW 5.0 mph 5.0 mph 63 % 0.00 in
17:25 32.4 °F 21.2 °F 30.11 in NNW 1.0 mph 4.0 mph 63 % 0.00 in
17:30 32.1 °F 21.0 °F 30.11 in NNW 1.0 mph 6.0 mph 63 % 0.00 in
17:35 32.1 °F 21.0 °F 30.11 in NNW 1.0 mph 6.0 mph 63 % 0.00 in
17:37 31.8 °F 21.0 °F 30.15 in Calm   4.0 mph 64 % 0.00 in
17:40 32.1 °F 21.0 °F 30.11 in NNW 1.0 mph 6.0 mph 63 % 0.00 in
17:45 31.9 °F 21.1 °F 30.11 in NNW 1.0 mph 5.0 mph 64 % 0.00 in
17:50 31.9 °F 21.1 °F 30.11 in NNW 1.0 mph 5.0 mph 64 % 0.00 in
17:52 31.4 °F 20.0 °F 30.15 in NW 1.0 mph 3.0 mph 64 % 0.00 in
17:55 31.9 °F 21.1 °F 30.11 in NNW 1.0 mph 5.0 mph 64 % 0.00 in
18:00 31.5 °F 20.8 °F 30.12 in NNW 1.0 mph 4.0 mph 64 % 0.00 in
18:05 31.5 °F 20.8 °F 30.12 in NNW 1.0 mph 4.0 mph 64 % 0.00 in
18:07 31.0 °F 20.0 °F 30.15 in Calm   2.0 mph 64 % 0.00 in
18:10 31.5 °F 20.8 °F 30.12 in NNW 1.0 mph 4.0 mph 64 % 0.00 in
18:15 31.1 °F 20.4 °F 30.11 in NNW 1.0 mph 5.0 mph 64 % 0.00 in
18:20 31.1 °F 20.4 °F 30.11 in NNW 1.0 mph 5.0 mph 64 % 0.00 in
18:22 30.6 °F 20.0 °F 30.15 in Calm   3.0 mph 64 % 0.00 in
18:25 30.7 °F 20.0 °F 30.11 in Calm   3.0 mph 64 % 0.00 in
18:30 30.7 °F 20.0 °F 30.11 in Calm   3.0 mph 64 % 0.00 in
18:35 30.7 °F 20.0 °F 30.11 in Calm   3.0 mph 64 % 0.00 in
18:37 30.2 °F 20.0 °F 30.15 in Calm   1.0 mph 65 % 0.00 in
18:40 30.4 °F 20.1 °F 30.12 in Calm   3.0 mph 65 % 0.00 in
18:45 30.4 °F 20.1 °F 30.12 in Calm   3.0 mph 65 % 0.00 in
18:50 30.4 °F 20.1 °F 30.12 in Calm   3.0 mph 65 % 0.00 in
18:52 29.8 °F 20.0 °F 30.15 in Calm     66 % 0.00 in
18:55 29.9 °F 19.6 °F 30.12 in Calm     65 % 0.00 in
19:00 29.9 °F 19.6 °F 30.12 in Calm     65 % 0.00 in
19:05 29.9 °F 19.6 °F 30.12 in Calm     65 % 0.00 in
19:07 29.2 °F 19.0 °F 30.15 in Calm     66 % 0.00 in
19:10 29.9 °F 19.6 °F 30.12 in Calm     65 % 0.00 in
19:15 29.4 °F 19.5 °F 30.11 in Calm     66 % 0.00 in
19:20 29.4 °F 19.5 °F 30.11 in Calm     66 % 0.00 in
19:22 28.7 °F 19.0 °F 30.15 in Calm     67 % 0.00 in
19:25 29.4 °F 19.5 °F 30.11 in Calm     66 % 0.00 in
19:30 28.8 °F 18.9 °F 30.11 in Calm     66 % 0.00 in
19:35 28.8 °F 18.9 °F 30.11 in Calm     66 % 0.00 in
19:37 28.1 °F 19.0 °F 30.15 in Calm     68 % 0.00 in
19:40 28.8 °F 18.9 °F 30.11 in Calm     66 % 0.00 in
19:45 28.2 °F 18.7 °F 30.11 in Calm     67 % 0.00 in
19:50 28.2 °F 18.7 °F 30.11 in Calm     67 % 0.00 in
19:52 27.5 °F 19.0 °F 30.15 in Calm   2.0 mph 71 % 0.00 in
19:55 27.6 °F 19.1 °F 30.12 in Calm     70 % 0.00 in
20:00 27.6 °F 19.1 °F 30.12 in Calm     70 % 0.00 in
20:05 27.6 °F 19.1 °F 30.12 in Calm     70 % 0.00 in
20:07 27.3 °F 19.0 °F 30.15 in Calm   3.0 mph 72 % 0.00 in
20:10 27.3 °F 19.5 °F 30.12 in Calm   3.0 mph 72 % 0.00 in
20:15 27.3 °F 19.5 °F 30.12 in Calm   3.0 mph 72 % 0.00 in
20:20 27.3 °F 19.5 °F 30.12 in Calm   3.0 mph 72 % 0.00 in
20:22 27.1 °F 20.0 °F 30.15 in Calm     73 % 0.00 in
20:25 27.1 °F 19.6 °F 30.12 in Calm     73 % 0.00 in
20:30 27.1 °F 19.6 °F 30.12 in Calm     73 % 0.00 in
20:35 27.1 °F 19.6 °F 30.12 in Calm     73 % 0.00 in
20:37 26.8 °F 19.0 °F 30.15 in Calm     73 % 0.00 in
20:40 26.9 °F 19.4 °F 30.11 in Calm     73 % 0.00 in
20:45 26.9 °F 19.4 °F 30.11 in Calm     73 % 0.00 in
20:50 26.9 °F 19.4 °F 30.11 in Calm     73 % 0.00 in
20:52 26.4 °F 19.0 °F 30.14 in Calm     74 % 0.00 in
20:55 26.9 °F 19.4 °F 30.11 in Calm     73 % 0.00 in
21:00 26.5 °F 19.4 °F 30.11 in Calm     74 % 0.00 in
21:05 26.5 °F 19.4 °F 30.11 in Calm     74 % 0.00 in
21:07 25.9 °F 19.0 °F 30.14 in Calm     74 % 0.00 in
21:10 26.5 °F 19.4 °F 30.11 in Calm     74 % 0.00 in
21:15 26.1 °F 19.0 °F 30.11 in Calm     74 % 0.00 in
21:20 26.1 °F 19.0 °F 30.11 in Calm     74 % 0.00 in
21:22 25.4 °F 19.0 °F 30.14 in Calm     76 % 0.00 in
21:25 26.1 °F 19.0 °F 30.11 in Calm     74 % 0.00 in
21:30 25.6 °F 18.8 °F 30.10 in Calm     75 % 0.00 in
21:35 25.6 °F 18.8 °F 30.10 in Calm     75 % 0.00 in
21:38 25.0 °F 19.0 °F 30.13 in Calm     77 % 0.00 in
21:40 25.1 °F 18.6 °F 30.10 in Calm     76 % 0.00 in
21:45 25.1 °F 18.6 °F 30.10 in Calm     76 % 0.00 in
21:50 25.1 °F 18.6 °F 30.10 in Calm     76 % 0.00 in
21:53 24.7 °F 19.0 °F 30.13 in Calm     78 % 0.00 in
21:55 24.8 °F 18.6 °F 30.10 in Calm     77 % 0.00 in
22:00 24.8 °F 18.6 °F 30.10 in Calm     77 % 0.00 in
22:05 24.8 °F 18.6 °F 30.10 in Calm     77 % 0.00 in
22:08 24.5 °F 19.0 °F 30.13 in Calm     78 % 0.00 in
22:10 24.5 °F 18.6 °F 30.10 in Calm     78 % 0.00 in
22:15 24.5 °F 18.6 °F 30.10 in Calm     78 % 0.00 in
22:20 24.5 °F 18.6 °F 30.10 in Calm     78 % 0.00 in
22:23 24.1 °F 18.0 °F 30.13 in Calm     78 % 0.00 in
22:25 24.5 °F 18.6 °F 30.10 in Calm     78 % 0.00 in
22:30 24.3 °F 18.5 °F 30.10 in Calm     78 % 0.00 in
22:35 24.3 °F 18.5 °F 30.10 in Calm     78 % 0.00 in
22:38 23.8 °F 18.0 °F 30.12 in Calm     79 % 0.00 in
22:40 24.3 °F 18.5 °F 30.10 in Calm     78 % 0.00 in
22:45 23.9 °F 18.4 °F 30.09 in Calm     79 % 0.00 in
22:50 23.9 °F 18.4 °F 30.09 in Calm     79 % 0.00 in
22:53 23.6 °F 18.0 °F 30.12 in Calm     79 % 0.00 in
22:55 23.9 °F 18.4 °F 30.09 in Calm     79 % 0.00 in
23:00 23.7 °F 18.2 °F 30.09 in Calm     79 % 0.00 in
23:05 23.7 °F 18.2 °F 30.09 in Calm     79 % 0.00 in
23:08 23.3 °F 18.0 °F 30.12 in Calm     80 % 0.00 in
23:10 23.7 °F 18.2 °F 30.09 in Calm     79 % 0.00 in
23:15 23.4 °F 17.9 °F 30.09 in Calm     79 % 0.00 in
23:20 23.4 °F 17.9 °F 30.09 in Calm     79 % 0.00 in
23:23 23.1 °F 18.0 °F 30.11 in Calm     81 % 0.00 in
23:25 23.1 °F 18.2 °F 30.09 in Calm     81 % 0.00 in
23:30 23.1 °F 18.2 °F 30.09 in Calm     81 % 0.00 in
23:35 23.1 °F 18.2 °F 30.09 in Calm     81 % 0.00 in
23:38 23.0 °F 18.0 °F 30.10 in Calm     81 % 0.00 in
23:40 23.0 °F 18.0 °F 30.08 in Calm     81 % 0.00 in
23:45 23.0 °F 18.0 °F 30.08 in Calm     81 % 0.00 in
23:50 23.0 °F 18.0 °F 30.08 in Calm     81 % 0.00 in
23:53 22.9 °F 18.0 °F 30.11 in Calm     82 % 0.00 in
23:55 22.9 °F 18.2 °F 30.08 in Calm     82 % 0.00 in
Des Moines Weather and Climate
Compliments of Weather Underground - 4.5 mb

Script developed by  Jim McMurry - jmcmurry@mwt.net Adapted for the template by  Wim van der Kuil - Leuven-Template.eu

You find our weather info also at:

Weather Underground

Equipment we use:

Weather-station
Davis VP2 Plus

Weather-program
Davis Weatherlink.Com

Weather-server
iMac (Retina 4K, 21.5-inch, Late 2015)

Provider
Hostmonster.com

Davis VP2 Plus

Davis Weatherlink.Com

iMac (Retina 4K, 21.5-inch, Late 2015)

Hostmonster.com